createdAt,value
2017-10-31T00:00:39.466Z,2.24
2017-10-31T00:01:39.493Z,2.35
2017-10-31T00:02:39.525Z,2.36
2017-10-31T00:03:39.546Z,2.35
2017-10-31T00:04:39.573Z,2.28
2017-10-31T00:05:39.600Z,2.45
2017-10-31T00:06:39.627Z,2.46
2017-10-31T00:07:39.653Z,2.43
2017-10-31T00:08:39.679Z,2.45
2017-10-31T00:09:39.708Z,2.53
2017-10-31T00:10:39.734Z,2.67
2017-10-31T00:11:39.760Z,2.45
2017-10-31T00:12:39.788Z,2.42
2017-10-31T00:13:39.816Z,2.41
2017-10-31T00:14:39.842Z,2.36
2017-10-31T00:15:39.867Z,2.28
2017-10-31T00:16:39.895Z,2.17
2017-10-31T00:17:39.921Z,2.25
2017-10-31T00:18:39.949Z,2.30
2017-10-31T00:19:39.974Z,2.27
2017-10-31T00:20:40.001Z,2.34
2017-10-31T00:21:40.037Z,2.20
2017-10-31T00:22:40.055Z,2.27
2017-10-31T00:23:40.082Z,2.20
2017-10-31T00:24:40.109Z,2.28
2017-10-31T00:25:40.136Z,2.27
2017-10-31T00:26:40.164Z,2.27
2017-10-31T00:27:40.191Z,2.24
2017-10-31T00:28:40.216Z,2.24
2017-10-31T00:29:40.244Z,2.17
2017-10-31T00:30:40.270Z,2.20
2017-10-31T00:31:40.296Z,2.16
2017-10-31T00:32:40.324Z,2.20
2017-10-31T00:33:40.352Z,2.14
2017-10-31T00:34:40.379Z,2.16
2017-10-31T00:35:40.404Z,2.25
2017-10-31T00:36:40.431Z,2.16
2017-10-31T00:37:40.458Z,2.27
2017-10-31T00:38:40.485Z,2.28
2017-10-31T00:39:40.515Z,2.16
2017-10-31T00:40:40.538Z,2.10
2017-10-31T00:41:40.565Z,2.16
2017-10-31T00:42:40.593Z,2.27
2017-10-31T00:43:40.619Z,2.27
2017-10-31T00:44:40.644Z,2.42
2017-10-31T00:45:40.672Z,2.66
2017-10-31T00:46:40.699Z,2.63
2017-10-31T00:47:40.726Z,2.72
2017-10-31T00:48:40.753Z,2.67
2017-10-31T00:49:40.779Z,2.81
2017-10-31T00:50:40.807Z,2.75
2017-10-31T00:51:40.845Z,2.54
2017-10-31T00:52:40.860Z,2.61
2017-10-31T00:53:40.888Z,2.48
2017-10-31T00:54:40.914Z,2.35
2017-10-31T00:55:40.939Z,2.27
2017-10-31T00:56:40.968Z,2.21
2017-10-31T00:57:40.993Z,2.21
2017-10-31T00:58:41.021Z,2.27
2017-10-31T00:59:41.047Z,2.25
2017-10-31T01:00:41.075Z,2.38
2017-10-31T01:01:41.101Z,2.28
2017-10-31T01:02:41.128Z,2.27
2017-10-31T01:03:41.154Z,2.17
2017-10-31T01:04:41.181Z,2.18
2017-10-31T01:05:41.209Z,2.05
2017-10-31T01:06:41.238Z,1.99
2017-10-31T01:07:41.274Z,2.00
2017-10-31T01:08:41.288Z,2.02
2017-10-31T01:09:41.316Z,1.88
2017-10-31T01:10:41.341Z,2.00
2017-10-31T01:11:41.368Z,1.98
2017-10-31T01:12:41.396Z,1.87
2017-10-31T01:13:41.426Z,1.91
2017-10-31T01:14:41.448Z,1.93
2017-10-31T01:15:41.476Z,1.93
2017-10-31T01:16:41.505Z,1.93
2017-10-31T01:17:41.529Z,1.95
2017-10-31T01:18:41.555Z,1.86
2017-10-31T01:19:41.580Z,1.88
2017-10-31T01:20:41.607Z,1.99
2017-10-31T01:21:41.636Z,1.95
2017-10-31T01:22:41.661Z,1.88
2017-10-31T01:23:41.688Z,2.00
2017-10-31T01:24:41.735Z,2.00
2017-10-31T01:25:41.741Z,1.95
2017-10-31T01:26:41.770Z,2.05
2017-10-31T01:27:41.796Z,2.14
2017-10-31T01:28:41.821Z,2.00
2017-10-31T01:29:41.849Z,2.20
2017-10-31T01:30:41.875Z,2.16
2017-10-31T01:31:41.902Z,2.10
2017-10-31T01:32:41.929Z,2.20
2017-10-31T01:33:41.956Z,2.25
2017-10-31T01:34:41.983Z,2.27
2017-10-31T01:35:42.009Z,2.27
2017-10-31T01:36:42.036Z,2.23
2017-10-31T01:37:42.062Z,2.31
2017-10-31T01:38:42.092Z,2.24
2017-10-31T01:39:42.119Z,2.30
2017-10-31T01:40:42.142Z,2.21
2017-10-31T01:41:42.169Z,2.30
2017-10-31T01:42:42.197Z,2.16
2017-10-31T01:43:42.222Z,2.18
2017-10-31T01:44:42.249Z,2.20
2017-10-31T01:45:42.276Z,2.35
2017-10-31T01:46:42.302Z,2.23
2017-10-31T01:47:42.329Z,2.25
2017-10-31T01:48:42.355Z,2.18
2017-10-31T01:49:42.383Z,2.12
2017-10-31T01:50:42.410Z,2.18
2017-10-31T01:51:42.436Z,2.09
2017-10-31T01:52:42.463Z,1.99
2017-10-31T01:53:42.491Z,2.09
2017-10-31T01:54:42.517Z,2.16
2017-10-31T01:55:42.543Z,2.03
2017-10-31T01:56:42.569Z,1.99
2017-10-31T01:57:42.595Z,2.02
2017-10-31T01:58:42.623Z,2.14
2017-10-31T01:59:42.647Z,2.10
2017-10-31T02:00:42.675Z,1.98
2017-10-31T02:01:42.703Z,2.16
2017-10-31T02:02:42.730Z,2.27
2017-10-31T02:03:42.755Z,2.25
2017-10-31T02:04:42.782Z,2.28
2017-10-31T02:05:42.810Z,2.42
2017-10-31T02:06:42.836Z,2.48
2017-10-31T02:07:42.862Z,2.42
2017-10-31T02:08:42.889Z,2.48
2017-10-31T02:09:42.916Z,2.25
2017-10-31T02:10:42.944Z,2.12
2017-10-31T02:11:42.969Z,2.16
2017-10-31T02:12:42.996Z,2.14
2017-10-31T02:13:43.022Z,2.14
2017-10-31T02:14:43.050Z,2.02
2017-10-31T02:15:43.075Z,1.98
2017-10-31T02:16:43.102Z,2.03
2017-10-31T02:17:43.133Z,2.10
2017-10-31T02:18:43.167Z,2.28
2017-10-31T02:19:43.181Z,2.31
2017-10-31T02:20:43.208Z,2.27
2017-10-31T02:21:43.236Z,2.28
2017-10-31T02:22:43.270Z,2.35
2017-10-31T02:23:43.288Z,2.30
2017-10-31T02:24:43.315Z,2.28
2017-10-31T02:25:43.341Z,2.16
2017-10-31T02:26:43.368Z,2.27
2017-10-31T02:27:43.395Z,2.16
2017-10-31T02:28:43.421Z,2.16
2017-10-31T02:29:43.449Z,2.06
2017-10-31T02:30:43.481Z,1.93
2017-10-31T02:31:43.501Z,1.87
2017-10-31T02:32:43.529Z,1.84
2017-10-31T02:33:43.556Z,1.87
2017-10-31T02:34:43.582Z,1.84
2017-10-31T02:35:43.608Z,1.80
2017-10-31T02:36:43.649Z,1.79
2017-10-31T02:37:43.661Z,1.80
2017-10-31T02:38:43.690Z,1.87
2017-10-31T02:39:43.721Z,1.99
2017-10-31T02:40:43.739Z,1.99
2017-10-31T02:41:43.767Z,1.98
2017-10-31T02:42:43.792Z,1.98
2017-10-31T02:43:43.819Z,2.02
2017-10-31T02:44:43.845Z,2.16
2017-10-31T02:45:43.874Z,2.18
2017-10-31T02:46:43.903Z,2.14
2017-10-31T02:47:43.925Z,2.05
2017-10-31T02:48:43.953Z,1.99
2017-10-31T02:49:43.979Z,2.00
2017-10-31T02:50:44.005Z,1.88
2017-10-31T02:51:44.031Z,2.00
2017-10-31T02:52:44.057Z,1.93
2017-10-31T02:53:44.085Z,1.83
2017-10-31T02:54:44.111Z,1.76
2017-10-31T02:55:44.137Z,1.79
2017-10-31T02:56:44.166Z,1.80
2017-10-31T02:57:44.191Z,1.63
2017-10-31T02:58:44.221Z,1.66
2017-10-31T02:59:44.243Z,1.59
2017-10-31T03:00:44.271Z,1.58
2017-10-31T03:01:44.307Z,1.54
2017-10-31T03:02:44.325Z,1.76
2017-10-31T03:03:44.349Z,1.69
2017-10-31T03:04:44.377Z,1.87
2017-10-31T03:05:44.402Z,1.84
2017-10-31T03:06:44.430Z,1.93
2017-10-31T03:07:44.456Z,1.90
2017-10-31T03:08:44.482Z,1.81
2017-10-31T03:09:44.507Z,1.63
2017-10-31T03:10:44.535Z,1.62
2017-10-31T03:11:44.560Z,1.58
2017-10-31T03:12:44.588Z,1.58
2017-10-31T03:13:44.614Z,1.68
2017-10-31T03:14:44.654Z,1.48
2017-10-31T03:15:44.666Z,1.36
2017-10-31T03:16:44.694Z,1.47
2017-10-31T03:17:44.721Z,1.60
2017-10-31T03:18:44.746Z,1.62
2017-10-31T03:19:44.772Z,1.90
2017-10-31T03:20:44.798Z,2.10
2017-10-31T03:21:44.826Z,1.93
2017-10-31T03:22:44.852Z,1.88
2017-10-31T03:23:44.878Z,1.95
2017-10-31T03:24:44.917Z,1.90
2017-10-31T03:25:44.931Z,1.68
2017-10-31T03:26:44.958Z,1.80
2017-10-31T03:27:44.983Z,1.99
2017-10-31T03:28:45.010Z,1.66
2017-10-31T03:29:45.038Z,1.68
2017-10-31T03:30:45.072Z,1.52
2017-10-31T03:31:45.089Z,1.50
2017-10-31T03:32:45.114Z,1.51
2017-10-31T03:33:45.142Z,1.47
2017-10-31T03:34:45.169Z,1.45
2017-10-31T03:35:45.193Z,1.44
2017-10-31T03:36:45.220Z,1.41
2017-10-31T03:37:45.246Z,1.59
2017-10-31T03:38:45.273Z,1.47
2017-10-31T03:39:45.298Z,1.72
2017-10-31T03:40:45.326Z,1.59
2017-10-31T03:41:45.352Z,1.77
2017-10-31T03:42:45.378Z,1.87
2017-10-31T03:43:45.404Z,1.93
2017-10-31T03:44:45.430Z,1.99
2017-10-31T03:45:45.456Z,2.10
2017-10-31T03:46:45.484Z,2.12
2017-10-31T03:47:45.510Z,2.12
2017-10-31T03:48:45.542Z,2.14
2017-10-31T03:49:45.562Z,2.17
2017-10-31T03:50:45.588Z,2.18
2017-10-31T03:51:45.613Z,2.02
2017-10-31T03:52:45.639Z,2.06
2017-10-31T03:53:45.667Z,1.88
2017-10-31T03:54:45.693Z,2.00
2017-10-31T03:55:45.718Z,2.00
2017-10-31T03:56:45.743Z,2.09
2017-10-31T03:57:45.770Z,2.03
2017-10-31T03:58:45.797Z,2.17
2017-10-31T03:59:45.823Z,2.16
2017-10-31T04:00:45.849Z,2.16
2017-10-31T04:01:45.874Z,2.02
2017-10-31T04:02:45.902Z,2.03
2017-10-31T04:03:45.927Z,1.93
2017-10-31T04:04:45.954Z,1.93
2017-10-31T04:05:45.979Z,1.90
2017-10-31T04:06:46.006Z,1.90
2017-10-31T04:07:46.032Z,1.68
2017-10-31T04:08:46.061Z,1.55
2017-10-31T04:09:46.084Z,1.66
2017-10-31T04:10:46.111Z,1.51
2017-10-31T04:11:46.134Z,1.51
2017-10-31T04:12:46.162Z,1.47
2017-10-31T04:13:46.188Z,1.33
2017-10-31T04:14:46.214Z,1.32
2017-10-31T04:15:46.240Z,1.32
2017-10-31T04:16:46.266Z,1.22
2017-10-31T04:17:46.291Z,1.32
2017-10-31T04:18:46.319Z,1.23
2017-10-31T04:19:46.344Z,1.12
2017-10-31T04:20:46.369Z,1.02
2017-10-31T04:21:46.396Z,1.12
2017-10-31T04:22:46.422Z,1.06
2017-10-31T04:23:46.449Z,1.00
2017-10-31T04:24:46.474Z,1.34
2017-10-31T04:25:46.501Z,1.29
2017-10-31T04:26:46.527Z,1.37
2017-10-31T04:27:46.550Z,1.36
2017-10-31T04:28:46.577Z,1.37
2017-10-31T04:29:46.604Z,1.37
2017-10-31T04:30:46.629Z,1.41
2017-10-31T04:31:46.658Z,1.44
2017-10-31T04:32:46.681Z,1.36
2017-10-31T04:33:46.711Z,1.32
2017-10-31T04:34:46.738Z,1.32
2017-10-31T04:35:46.759Z,1.44
2017-10-31T04:36:46.785Z,1.42
2017-10-31T04:37:46.811Z,1.36
2017-10-31T04:38:46.837Z,1.52
2017-10-31T04:39:46.863Z,1.59
2017-10-31T04:40:46.889Z,1.40
2017-10-31T04:41:46.925Z,1.27
2017-10-31T04:42:46.941Z,1.36
2017-10-31T04:43:46.966Z,1.34
2017-10-31T04:44:46.992Z,1.30
2017-10-31T04:45:47.019Z,1.27
2017-10-31T04:46:47.045Z,1.15
2017-10-31T04:47:47.071Z,1.30
2017-10-31T04:48:47.096Z,1.09
2017-10-31T04:49:47.123Z,1.14
2017-10-31T04:50:47.148Z,1.09
2017-10-31T04:51:47.179Z,1.08
2017-10-31T04:52:47.200Z,1.22
2017-10-31T04:53:47.227Z,1.26
2017-10-31T04:54:47.253Z,1.04
2017-10-31T04:55:47.277Z,1.06
2017-10-31T04:56:47.304Z,1.30
2017-10-31T04:57:47.330Z,1.20
2017-10-31T04:58:47.360Z,1.12
2017-10-31T04:59:47.380Z,1.08
2017-10-31T05:00:47.413Z,1.08
2017-10-31T05:01:47.432Z,1.06
2017-10-31T05:02:47.459Z,1.00
2017-10-31T05:03:47.485Z,1.00
2017-10-31T05:04:47.511Z,0.97
2017-10-31T05:05:47.538Z,0.98
2017-10-31T05:06:47.564Z,1.02
2017-10-31T05:07:47.588Z,1.04
2017-10-31T05:08:47.615Z,1.08
2017-10-31T05:09:47.639Z,1.08
2017-10-31T05:10:47.666Z,1.08
2017-10-31T05:11:47.692Z,1.29
2017-10-31T05:12:47.718Z,1.20
2017-10-31T05:13:47.743Z,1.22
2017-10-31T05:14:47.770Z,1.22
2017-10-31T05:15:47.795Z,1.27
2017-10-31T05:16:47.821Z,1.18
2017-10-31T05:17:47.853Z,1.16
2017-10-31T05:18:47.874Z,1.26
2017-10-31T05:19:47.899Z,1.29
2017-10-31T05:20:47.929Z,1.37
2017-10-31T05:21:47.951Z,1.41
2017-10-31T05:22:47.977Z,1.41
2017-10-31T05:23:48.002Z,1.29
2017-10-31T05:24:48.028Z,1.24
2017-10-31T05:25:48.054Z,1.29
2017-10-31T05:26:48.079Z,1.11
2017-10-31T05:27:48.106Z,1.14
2017-10-31T05:28:48.132Z,0.97
2017-10-31T05:29:48.158Z,1.09
2017-10-31T05:30:48.184Z,1.18
2017-10-31T05:31:48.209Z,1.37
2017-10-31T05:32:48.234Z,1.24
2017-10-31T05:33:48.261Z,1.18
2017-10-31T05:34:48.288Z,1.34
2017-10-31T05:35:48.312Z,1.48
2017-10-31T05:36:48.338Z,1.41
2017-10-31T05:37:48.366Z,1.45
2017-10-31T05:38:48.390Z,1.51
2017-10-31T05:39:48.415Z,1.58
2017-10-31T05:40:48.441Z,1.44
2017-10-31T05:41:48.467Z,1.48
2017-10-31T05:42:48.494Z,1.55
2017-10-31T05:43:48.518Z,1.66
2017-10-31T05:44:48.545Z,1.63
2017-10-31T05:45:48.572Z,1.66
2017-10-31T05:46:48.596Z,1.42
2017-10-31T05:47:48.622Z,1.52
2017-10-31T05:48:48.661Z,1.41
2017-10-31T05:49:48.674Z,1.47
2017-10-31T05:50:48.701Z,1.50
2017-10-31T05:51:48.726Z,1.45
2017-10-31T05:52:48.751Z,1.37
2017-10-31T05:53:48.778Z,1.42
2017-10-31T05:54:48.803Z,1.47
2017-10-31T05:55:48.827Z,1.42
2017-10-31T05:56:48.855Z,1.65
2017-10-31T05:57:48.880Z,1.59
2017-10-31T05:58:48.905Z,1.59
2017-10-31T05:59:48.931Z,1.48
2017-10-31T06:00:48.957Z,1.62
2017-10-31T06:01:48.983Z,1.48
2017-10-31T06:02:49.009Z,1.51
2017-10-31T06:03:49.034Z,1.44
2017-10-31T06:04:49.059Z,1.36
2017-10-31T06:05:49.087Z,1.37
2017-10-31T06:06:49.112Z,1.23
2017-10-31T06:07:49.136Z,1.36
2017-10-31T06:08:49.161Z,1.36
2017-10-31T06:09:49.192Z,1.36
2017-10-31T06:10:49.213Z,1.58
2017-10-31T06:11:49.240Z,1.45
2017-10-31T06:12:49.265Z,1.50
2017-10-31T06:13:49.292Z,1.44
2017-10-31T06:14:49.318Z,1.29
2017-10-31T06:15:49.343Z,1.34
2017-10-31T06:16:49.369Z,1.34
2017-10-31T06:17:49.394Z,1.58
2017-10-31T06:18:49.419Z,1.69
2017-10-31T06:19:49.448Z,1.66
2017-10-31T06:20:49.477Z,1.65
2017-10-31T06:21:49.497Z,1.62
2017-10-31T06:22:49.528Z,1.68
2017-10-31T06:23:49.548Z,1.48
2017-10-31T06:24:49.574Z,1.50
2017-10-31T06:25:49.600Z,1.54
2017-10-31T06:26:49.627Z,1.48
2017-10-31T06:27:49.652Z,1.50
2017-10-31T06:28:49.677Z,1.44
2017-10-31T06:29:49.703Z,1.33
2017-10-31T06:30:49.730Z,1.34
2017-10-31T06:31:49.757Z,1.44
2017-10-31T06:32:49.781Z,1.50
2017-10-31T06:33:49.806Z,1.52
2017-10-31T06:34:49.832Z,1.65
2017-10-31T06:35:49.858Z,1.54
2017-10-31T06:36:49.883Z,1.68
2017-10-31T06:37:49.909Z,1.79
2017-10-31T06:38:49.935Z,1.88
2017-10-31T06:39:49.960Z,1.81
2017-10-31T06:40:49.995Z,1.81
2017-10-31T06:41:50.012Z,1.63
2017-10-31T06:42:50.038Z,1.83
2017-10-31T06:43:50.064Z,1.77
2017-10-31T06:44:50.088Z,1.65
2017-10-31T06:45:50.116Z,1.47
2017-10-31T06:46:50.141Z,1.54
2017-10-31T06:47:50.167Z,1.62
2017-10-31T06:48:50.193Z,1.87
2017-10-31T06:49:50.220Z,1.88
2017-10-31T06:50:50.246Z,2.07
2017-10-31T06:51:50.271Z,2.12
2017-10-31T06:52:50.297Z,2.20
2017-10-31T06:53:50.324Z,2.18
2017-10-31T06:54:50.350Z,2.38
2017-10-31T06:55:50.375Z,2.39
2017-10-31T06:56:50.402Z,2.54
2017-10-31T06:57:50.578Z,2.72
2017-10-31T06:58:50.454Z,2.64
2017-10-31T06:59:50.480Z,2.71
2017-10-31T07:00:50.506Z,2.71
2017-10-31T07:01:50.532Z,3.06
2017-10-31T07:02:50.559Z,2.97
2017-10-31T07:03:50.585Z,2.92
2017-10-31T07:04:50.611Z,3.18
2017-10-31T07:05:50.638Z,3.62
2017-10-31T07:06:50.664Z,4.29
2017-10-31T07:07:50.690Z,4.88
2017-10-31T07:08:50.716Z,5.76
2017-10-31T07:09:50.744Z,6.55
2017-10-31T07:10:50.771Z,7.32
2017-10-31T07:11:50.796Z,8.04
2017-10-31T07:12:50.822Z,8.66
2017-10-31T07:13:50.851Z,9.08
2017-10-31T07:14:50.877Z,9.48
2017-10-31T07:15:50.904Z,9.69
2017-10-31T07:16:50.931Z,9.83
2017-10-31T07:17:50.959Z,10.22
2017-10-31T07:18:50.986Z,10.44
2017-10-31T07:19:51.012Z,10.71
2017-10-31T07:20:51.040Z,10.85
2017-10-31T07:21:51.068Z,10.63
2017-10-31T07:22:51.097Z,10.52
2017-10-31T07:23:51.122Z,10.74
2017-10-31T07:24:51.150Z,10.42
2017-10-31T07:25:51.183Z,10.66
2017-10-31T07:26:51.207Z,10.85
2017-10-31T07:27:51.234Z,10.60
2017-10-31T07:28:51.262Z,10.48
2017-10-31T07:29:51.292Z,10.70
2017-10-31T07:30:51.321Z,10.89
2017-10-31T07:31:51.348Z,10.86
2017-10-31T07:32:51.384Z,11.21
2017-10-31T07:33:51.405Z,11.18
2017-10-31T07:34:51.436Z,11.67
2017-10-31T07:35:51.464Z,11.99
2017-10-31T07:36:51.493Z,12.52
2017-10-31T07:37:51.523Z,12.90
2017-10-31T07:38:51.552Z,13.17
2017-10-31T07:39:51.582Z,12.42
2017-10-31T07:40:51.611Z,13.23
2017-10-31T07:41:51.640Z,13.42
2017-10-31T07:42:51.670Z,13.75
2017-10-31T07:43:51.698Z,14.09
2017-10-31T07:44:51.728Z,14.36
2017-10-31T07:45:51.762Z,14.89
2017-10-31T07:46:51.790Z,15.02
2017-10-31T07:47:51.819Z,15.35
2017-10-31T07:48:51.849Z,15.38
2017-10-31T07:49:51.880Z,15.49
2017-10-31T07:50:51.912Z,15.19
2017-10-31T07:51:51.941Z,15.25
2017-10-31T07:52:51.971Z,15.02
2017-10-31T07:53:52.004Z,15.36
2017-10-31T07:54:52.035Z,15.90
2017-10-31T07:55:52.065Z,15.92
2017-10-31T07:56:52.096Z,15.19
2017-10-31T07:57:52.128Z,15.43
2017-10-31T07:58:52.160Z,15.78
2017-10-31T07:59:52.191Z,15.62
2017-10-31T08:00:52.222Z,16.15
2017-10-31T08:01:52.258Z,16.24
2017-10-31T08:02:52.287Z,16.30
2017-10-31T08:03:52.323Z,16.15
2017-10-31T08:04:52.351Z,16.50
2017-10-31T08:05:52.382Z,17.06
2017-10-31T08:06:52.416Z,17.48
2017-10-31T08:07:52.447Z,17.56
2017-10-31T08:08:52.480Z,16.76
2017-10-31T08:09:52.515Z,16.82
2017-10-31T08:10:52.547Z,16.53
2017-10-31T08:11:52.579Z,16.71
2017-10-31T08:12:52.614Z,16.79
2017-10-31T08:13:52.647Z,16.89
2017-10-31T08:14:52.682Z,17.34
2017-10-31T08:15:52.714Z,17.92
2017-10-31T08:16:52.747Z,18.30
2017-10-31T08:17:52.783Z,18.29
2017-10-31T08:18:52.817Z,18.73
2017-10-31T08:19:52.852Z,18.91
2017-10-31T08:20:52.887Z,18.98
2017-10-31T08:21:52.921Z,19.13
2017-10-31T08:22:52.955Z,19.59
2017-10-31T08:23:52.989Z,19.91
2017-10-31T08:24:53.025Z,19.78
2017-10-31T08:25:53.061Z,19.22
2017-10-31T08:26:53.097Z,19.13
2017-10-31T08:27:53.131Z,19.08
2017-10-31T08:28:53.167Z,18.63
2017-10-31T08:29:53.204Z,18.90
2017-10-31T08:30:53.240Z,18.84
2017-10-31T08:31:53.276Z,19.10
2017-10-31T08:32:53.311Z,19.26
2017-10-31T08:33:53.349Z,18.92
2017-10-31T08:34:53.386Z,19.33
2017-10-31T08:35:53.430Z,19.56
2017-10-31T08:36:53.460Z,19.98
2017-10-31T08:37:53.524Z,20.33
2017-10-31T08:38:53.558Z,20.62
2017-10-31T08:39:53.571Z,21.03
2017-10-31T08:40:53.608Z,20.59
2017-10-31T08:41:53.650Z,20.66
2017-10-31T08:42:53.684Z,20.42
2017-10-31T08:43:53.722Z,20.98
2017-10-31T08:44:53.764Z,20.94
2017-10-31T08:45:53.798Z,20.67
2017-10-31T08:46:53.837Z,20.95
2017-10-31T08:47:53.874Z,20.99
2017-10-31T08:48:53.914Z,20.95
2017-10-31T08:49:53.952Z,20.88
2017-10-31T08:50:53.992Z,20.99
2017-10-31T08:51:54.029Z,21.19
2017-10-31T08:52:54.069Z,21.01
2017-10-31T08:53:54.108Z,20.77
2017-10-31T08:54:54.147Z,20.97
2017-10-31T08:55:54.187Z,20.98
2017-10-31T08:56:54.231Z,21.19
2017-10-31T08:57:54.267Z,20.94
2017-10-31T08:58:54.311Z,21.10
2017-10-31T08:59:54.347Z,21.68
2017-10-31T09:00:54.386Z,21.92
2017-10-31T09:01:54.430Z,21.88
2017-10-31T09:02:54.467Z,22.14
2017-10-31T09:03:54.506Z,21.99
2017-10-31T09:04:54.548Z,22.21
2017-10-31T09:05:54.588Z,22.86
2017-10-31T09:06:54.630Z,23.02
2017-10-31T09:07:54.670Z,23.27
2017-10-31T09:08:54.711Z,23.57
2017-10-31T09:09:54.753Z,23.75
2017-10-31T09:10:54.794Z,24.30
2017-10-31T09:11:54.834Z,24.31
2017-10-31T09:12:54.876Z,24.46
2017-10-31T09:13:54.918Z,24.71
2017-10-31T09:14:54.960Z,25.17
2017-10-31T09:15:55.001Z,25.40
2017-10-31T09:16:55.044Z,25.58
2017-10-31T09:17:55.087Z,25.40
2017-10-31T09:18:55.134Z,26.05
2017-10-31T09:19:55.172Z,25.42
2017-10-31T09:20:55.215Z,23.01
2017-10-31T09:21:55.256Z,22.86
2017-10-31T09:22:55.301Z,22.68
2017-10-31T09:23:55.344Z,22.18
2017-10-31T09:24:55.388Z,21.84
2017-10-31T09:25:55.431Z,19.77
2017-10-31T09:26:55.675Z,20.08
2017-10-31T09:27:55.568Z,21.17
2017-10-31T09:28:55.561Z,19.81
2017-10-31T09:29:55.606Z,20.61
2017-10-31T09:30:55.650Z,21.31
2017-10-31T09:31:55.793Z,21.27
2017-10-31T09:32:55.739Z,21.12
2017-10-31T09:33:55.786Z,22.10
2017-10-31T09:34:55.831Z,21.90
2017-10-31T09:35:55.873Z,21.82
2017-10-31T09:36:55.917Z,22.00
2017-10-31T09:37:55.963Z,21.50
2017-10-31T09:38:56.007Z,21.54
2017-10-31T09:39:56.052Z,19.28
2017-10-31T09:40:56.098Z,19.81
2017-10-31T09:41:56.143Z,19.40
2017-10-31T09:42:56.189Z,20.14
2017-10-31T09:43:56.233Z,19.50
2017-10-31T09:44:56.279Z,19.39
2017-10-31T09:45:56.324Z,18.50
2017-10-31T09:46:56.370Z,19.63
2017-10-31T09:47:56.416Z,20.14
2017-10-31T09:48:56.460Z,20.13
2017-10-31T09:49:56.507Z,18.11
2017-10-31T09:50:56.553Z,17.72
2017-10-31T09:51:56.599Z,18.63
2017-10-31T09:52:56.645Z,17.79
2017-10-31T09:53:56.691Z,17.49
2017-10-31T09:54:56.737Z,18.33
2017-10-31T09:55:56.783Z,19.74
2017-10-31T09:56:56.829Z,20.29
2017-10-31T09:57:56.876Z,19.84
2017-10-31T09:58:56.922Z,17.72
2017-10-31T09:59:56.968Z,17.89
2017-10-31T10:00:57.014Z,18.66
2017-10-31T10:01:57.061Z,18.65
2017-10-31T10:02:57.108Z,18.44
2017-10-31T10:03:57.160Z,17.51
2017-10-31T10:04:57.200Z,17.81
2017-10-31T10:05:57.248Z,17.68
2017-10-31T10:06:57.297Z,16.20
2017-10-31T10:07:57.339Z,14.75
2017-10-31T10:08:57.387Z,14.72
2017-10-31T10:09:57.433Z,14.27
2017-10-31T10:10:57.480Z,16.09
2017-10-31T10:11:57.526Z,16.97
2017-10-31T10:12:57.573Z,16.67
2017-10-31T10:13:57.620Z,17.49
2017-10-31T10:14:57.665Z,19.44
2017-10-31T10:15:57.710Z,21.14
2017-10-31T10:16:57.756Z,19.91
2017-10-31T10:17:57.802Z,18.84
2017-10-31T10:18:57.846Z,16.81
2017-10-31T10:19:57.890Z,15.29
2017-10-31T10:20:57.936Z,15.59
2017-10-31T10:21:57.983Z,15.90
2017-10-31T10:22:58.032Z,17.06
2017-10-31T10:23:58.074Z,17.90
2017-10-31T10:24:58.120Z,17.70
2017-10-31T10:25:58.168Z,17.92
2017-10-31T10:26:58.228Z,17.64
2017-10-31T10:27:58.257Z,17.92
2017-10-31T10:28:58.304Z,17.56
2017-10-31T10:29:58.350Z,17.37
2017-10-31T10:30:58.396Z,17.38
2017-10-31T10:31:58.441Z,17.74
2017-10-31T10:32:58.488Z,18.84
2017-10-31T10:33:58.536Z,18.75
2017-10-31T10:34:58.587Z,19.66
2017-10-31T10:35:58.626Z,17.36
2017-10-31T10:36:58.674Z,17.38
2017-10-31T10:37:58.722Z,17.78
2017-10-31T10:38:58.769Z,17.92
2017-10-31T10:39:58.815Z,18.73
2017-10-31T10:40:58.862Z,19.13
2017-10-31T10:41:58.909Z,20.08
2017-10-31T10:42:58.956Z,19.04
2017-10-31T10:43:59.003Z,19.43
2017-10-31T10:44:59.050Z,19.83
2017-10-31T10:45:59.099Z,19.50
2017-10-31T10:46:59.146Z,19.26
2017-10-31T10:47:59.193Z,19.84
2017-10-31T10:48:59.240Z,18.98
2017-10-31T10:49:59.289Z,18.50
2017-10-31T10:50:59.337Z,17.14
2017-10-31T10:51:59.383Z,18.03
2017-10-31T10:52:59.430Z,17.59
2017-10-31T10:53:59.479Z,18.51
2017-10-31T10:54:59.526Z,19.25
2017-10-31T10:55:59.580Z,18.82
2017-10-31T10:56:59.625Z,19.56
2017-10-31T10:57:59.668Z,19.23
2017-10-31T10:58:59.718Z,17.68
2017-10-31T10:59:59.765Z,18.75
2017-10-31T11:00:59.813Z,17.41
2017-10-31T11:01:59.861Z,17.41
2017-10-31T11:02:59.909Z,16.86
2017-10-31T11:03:59.957Z,17.96
2017-10-31T11:05:00.006Z,18.60
2017-10-31T11:06:00.053Z,19.26
2017-10-31T11:07:00.102Z,19.10
2017-10-31T11:08:00.149Z,18.14
2017-10-31T11:09:00.199Z,19.47
2017-10-31T11:10:00.244Z,19.98
2017-10-31T11:11:00.293Z,21.28
2017-10-31T11:12:00.339Z,19.46
2017-10-31T11:13:00.390Z,20.51
2017-10-31T11:14:00.437Z,21.96
2017-10-31T11:15:00.487Z,20.92
2017-10-31T11:16:00.532Z,21.94
2017-10-31T11:17:00.583Z,22.62
2017-10-31T11:18:00.630Z,23.80
2017-10-31T11:19:00.679Z,22.72
2017-10-31T11:20:00.731Z,22.00
2017-10-31T11:21:00.776Z,22.35
2017-10-31T11:22:00.824Z,23.02
2017-10-31T11:23:00.874Z,23.54
2017-10-31T11:24:00.923Z,22.18
2017-10-31T11:25:00.970Z,23.02
2017-10-31T11:26:01.021Z,23.88
2017-10-31T11:27:01.071Z,23.91
2017-10-31T11:28:01.119Z,24.53
2017-10-31T11:29:01.169Z,24.96
2017-10-31T11:30:01.218Z,23.75
2017-10-31T11:31:01.268Z,22.72
2017-10-31T11:32:01.317Z,21.12
2017-10-31T11:33:01.379Z,22.05
2017-10-31T11:34:01.416Z,22.46
2017-10-31T11:35:01.467Z,24.15
2017-10-31T11:36:01.515Z,24.21
2017-10-31T11:37:01.567Z,25.24
2017-10-31T11:38:01.616Z,24.64
2017-10-31T11:39:01.667Z,24.24
2017-10-31T11:40:01.716Z,24.37
2017-10-31T11:41:01.766Z,25.43
2017-10-31T11:42:01.816Z,26.15
2017-10-31T11:43:01.866Z,26.65
2017-10-31T11:44:01.920Z,26.36
2017-10-31T11:45:01.967Z,26.05
2017-10-31T11:46:02.024Z,23.39
2017-10-31T11:47:02.065Z,24.83
2017-10-31T11:48:02.115Z,25.25
2017-10-31T11:49:02.166Z,25.88
2017-10-31T11:50:02.217Z,25.97
2017-10-31T11:51:02.274Z,26.15
2017-10-31T11:52:02.316Z,25.33
2017-10-31T11:53:02.366Z,26.65
2017-10-31T11:54:02.426Z,27.27
2017-10-31T11:55:02.469Z,27.18
2017-10-31T11:56:02.517Z,28.27
2017-10-31T11:57:02.567Z,27.96
2017-10-31T11:58:02.617Z,28.27
2017-10-31T11:59:02.669Z,26.76
2017-10-31T12:00:02.718Z,25.27
2017-10-31T12:01:02.769Z,24.30
2017-10-31T12:02:02.819Z,23.33
2017-10-31T12:03:02.870Z,24.20
2017-10-31T12:04:02.918Z,23.25
2017-10-31T12:05:02.970Z,22.42
2017-10-31T12:06:03.020Z,22.14
2017-10-31T12:07:03.071Z,22.57
2017-10-31T12:08:03.120Z,22.55
2017-10-31T12:09:03.171Z,21.62
2017-10-31T12:10:03.222Z,21.44
2017-10-31T12:11:03.272Z,21.98
2017-10-31T12:12:03.323Z,22.90
2017-10-31T12:13:03.375Z,23.39
2017-10-31T12:14:03.424Z,25.35
2017-10-31T12:15:03.473Z,25.97
2017-10-31T12:16:03.524Z,26.66
2017-10-31T12:17:03.580Z,27.31
2017-10-31T12:18:03.627Z,26.13
2017-10-31T12:19:03.682Z,24.71
2017-10-31T12:20:03.727Z,25.64
2017-10-31T12:21:03.778Z,25.40
2017-10-31T12:22:03.827Z,25.24
2017-10-31T12:23:03.878Z,23.13
2017-10-31T12:24:03.928Z,23.36
2017-10-31T12:25:03.979Z,23.40
2017-10-31T12:26:04.031Z,24.21
2017-10-31T12:27:04.081Z,24.37
2017-10-31T12:28:04.131Z,24.87
2017-10-31T12:29:04.183Z,26.06
2017-10-31T12:30:04.238Z,27.21
2017-10-31T12:31:04.285Z,25.46
2017-10-31T12:32:04.335Z,24.69
2017-10-31T12:33:04.385Z,23.39
2017-10-31T12:34:04.437Z,22.94
2017-10-31T12:35:04.490Z,23.80
2017-10-31T12:36:04.538Z,25.10
2017-10-31T12:37:04.589Z,24.81
2017-10-31T12:38:04.642Z,24.73
2017-10-31T12:39:04.693Z,23.85
2017-10-31T12:40:04.742Z,24.77
2017-10-31T12:41:04.795Z,24.64
2017-10-31T12:42:04.847Z,25.52
2017-10-31T12:43:04.899Z,23.75
2017-10-31T12:44:04.948Z,22.85
2017-10-31T12:45:05.000Z,22.47
2017-10-31T12:46:05.051Z,21.91
2017-10-31T12:47:05.108Z,22.22
2017-10-31T12:48:05.154Z,22.09
2017-10-31T12:49:05.204Z,22.68
2017-10-31T12:50:05.254Z,23.40
2017-10-31T12:51:05.305Z,23.57
2017-10-31T12:52:05.406Z,23.00
2017-10-31T12:53:05.407Z,22.73
2017-10-31T12:54:05.458Z,22.20
2017-10-31T12:55:05.509Z,22.14
2017-10-31T12:56:05.557Z,21.42
2017-10-31T12:57:05.610Z,20.99
2017-10-31T12:58:05.661Z,21.21
2017-10-31T12:59:05.711Z,21.88
2017-10-31T13:00:05.763Z,23.48
2017-10-31T13:01:05.813Z,23.39
2017-10-31T13:02:05.865Z,24.27
2017-10-31T13:03:05.914Z,23.80
2017-10-31T13:04:05.965Z,23.28
2017-10-31T13:05:06.013Z,22.88
2017-10-31T13:06:06.065Z,21.58
2017-10-31T13:07:06.214Z,20.05